Time;durP1;ratioP1;P1;durP2;ratioP2;P2;SDS_P1;SDS_P2;PMS_P1;PMS_P2;Temp;Humidity;BMP_temperature;BMP_pressure;BME280_temperature;BME280_humidity;BME280_pressure;Samples;Min_cycle;Max_cycle;Signal;HPM_P1;HPM_P2
2023/07/10 00:01:56;;;;;;;10.50;9.23;;;22.20;99.40;;;;;;5038073;28;20025;-93
2023/07/10 00:04:22;;;;;;;11.13;8.68;;;22.20;99.30;;;;;;5037967;28;20389;-93
2023/07/10 00:06:50;;;;;;;12.30;8.77;;;22.20;99.40;;;;;;5037778;28;20040;-94
2023/07/10 00:09:16;;;;;;;11.68;9.23;;;22.20;99.40;;;;;;5005458;28;20045;-92
2023/07/10 00:11:43;;;;;;;12.50;8.43;;;22.20;99.40;;;;;;5038279;28;20059;-92
2023/07/10 00:14:35;;;;;;;12.27;9.18;;;22.20;99.40;;;;;;5038060;28;20029;-92
2023/07/10 00:17:01;;;;;;;11.85;8.70;;;22.20;99.40;;;;;;5051881;28;20068;-94
2023/07/10 00:19:32;;;;;;;9.27;7.65;;;22.20;99.30;;;;;;5602251;22;20500;-93
2023/07/10 00:21:58;;;;;;;9.27;7.50;;;22.10;99.30;;;;;;4982479;28;20058;-94
2023/07/10 00:24:24;;;;;;;10.90;7.80;;;22.10;99.30;;;;;;4998458;28;20060;-94
2023/07/10 00:26:49;;;;;;;11.55;7.65;;;22.10;99.30;;;;;;4998427;28;20522;-93
2023/07/10 00:29:23;;;;;;;9.15;7.95;;;22.20;99.40;;;;;;4998930;28;20057;-93
2023/07/10 00:31:49;;;;;;;10.23;7.85;;;22.10;99.30;;;;;;5016597;28;20026;-92
2023/07/10 00:34:16;;;;;;;14.18;8.65;;;22.10;99.40;;;;;;4998465;28;20033;-93
2023/07/10 00:36:43;;;;;;;11.55;8.38;;;22.20;99.40;;;;;;4998538;28;20079;-93
2023/07/10 00:39:30;;;;;;;12.45;7.70;;;22.20;99.40;;;;;;5015114;28;20108;-94
2023/07/10 00:42:02;;;;;;;10.73;7.40;;;22.20;99.40;;;;;;4998176;28;20022;-95
2023/07/10 00:44:41;;;;;;;9.20;7.10;;;22.20;99.40;;;;;;4998760;28;20038;-93
2023/07/10 00:47:37;;;;;;;9.73;7.18;;;22.20;99.40;;;;;;4998809;28;20049;-93
2023/07/10 00:50:09;;;;;;;9.98;7.40;;;22.20;99.40;;;;;;4998634;28;20382;-93
2023/07/10 00:52:47;;;;;;;9.13;6.60;;;22.20;99.40;;;;;;5000557;28;20026;-93
2023/07/10 00:55:43;;;;;;;10.77;7.47;;;22.10;99.30;;;;;;5002113;28;20053;-93
2023/07/10 00:58:42;;;;;;;10.45;7.32;;;22.20;99.40;;;;;;5004758;28;20082;-93
2023/07/10 01:01:23;;;;;;;12.35;7.35;;;22.20;99.30;;;;;;5009050;28;20041;-93
2023/07/10 01:03:53;;;;;;;9.88;6.95;;;22.20;99.30;;;;;;5005344;28;20030;-94
2023/07/10 01:06:22;;;;;;;9.05;6.85;;;22.20;99.30;;;;;;5017855;28;20484;-94
2023/07/10 01:09:00;;;;;;;8.90;6.65;;;22.20;99.40;;;;;;5015550;28;20058;-94
2023/07/10 01:11:28;;;;;;;11.45;6.80;;;22.10;99.30;;;;;;4998052;28;20033;-93
2023/07/10 01:13:57;;;;;;;9.85;6.40;;;22.10;99.20;;;;;;5014927;28;20045;-93
2023/07/10 01:16:25;;;;;;;10.32;6.63;;;22.10;99.30;;;;;;4997493;28;20026;-94
2023/07/10 01:18:55;;;;;;;9.32;6.88;;;22.00;99.30;;;;;;4997084;28;20428;-93
2023/07/10 01:21:32;;;;;;;10.65;6.55;;;22.00;99.30;;;;;;4997913;28;20392;-93
2023/07/10 01:24:12;;;;;;;8.63;6.40;;;22.00;99.30;;;;;;4997162;28;20037;-93
2023/07/10 01:26:39;;;;;;;12.88;6.45;;;22.00;99.30;;;;;;4997320;28;20034;-95
2023/07/10 01:29:17;;;;;;;7.78;5.97;;;22.00;99.30;;;;;;5015092;28;20026;-94
2023/07/10 01:31:43;;;;;;;10.23;5.78;;;22.00;99.30;;;;;;5013409;28;20089;-94
2023/07/10 01:34:12;;;;;;;10.27;6.82;;;22.00;99.20;;;;;;4981207;28;20026;-94
2023/07/10 01:36:40;;;;;;;9.40;5.60;;;22.00;99.20;;;;;;5013412;28;20029;-94
2023/07/10 01:39:15;;;;;;;8.02;5.78;;;21.90;99.10;;;;;;4997085;28;20036;-95
2023/07/10 01:41:45;;;;;;;7.65;5.88;;;21.80;99.20;;;;;;5013675;28;20116;-93
2023/07/10 01:44:26;;;;;;;7.65;5.70;;;21.80;99.20;;;;;;5013518;28;20030;-93
2023/07/10 01:46:53;;;;;;;9.43;6.05;;;21.70;99.20;;;;;;5013897;28;20508;-93
2023/07/10 01:49:40;;;;;;;7.20;5.30;;;21.80;99.20;;;;;;4997111;28;20119;-93
2023/07/10 01:52:12;;;;;;;9.13;4.80;;;21.70;99.20;;;;;;5013534;28;20034;-94
2023/07/10 01:54:38;;;;;;;5.15;4.32;;;21.60;99.10;;;;;;4997055;28;20061;-94
2023/07/10 01:57:05;;;;;;;7.75;4.90;;;21.60;99.10;;;;;;4997331;28;20072;-93
2023/07/10 01:59:31;;;;;;;9.32;4.93;;;21.70;99.10;;;;;;4997651;28;20461;-93
2023/07/10 02:02:06;;;;;;;6.88;4.65;;;21.70;99.10;;;;;;4997086;28;20049;-93
2023/07/10 02:04:32;;;;;;;7.78;4.22;;;21.60;99.00;;;;;;4998297;28;20022;-93
2023/07/10 02:06:58;;;;;;;8.38;4.45;;;21.70;99.00;;;;;;4997215;28;20022;-93
2023/07/10 02:09:27;;;;;;;9.95;4.30;;;21.70;99.00;;;;;;4999751;28;20424;-92
2023/07/10 02:11:54;;;;;;;5.72;4.30;;;21.70;99.00;;;;;;5001040;28;20022;-93
2023/07/10 02:14:21;;;;;;;6.07;4.07;;;21.70;98.90;;;;;;4984589;28;20038;-93
2023/07/10 02:16:55;;;;;;;7.70;4.13;;;21.70;98.90;;;;;;5017899;28;20033;-93
2023/07/10 02:19:23;;;;;;;6.68;4.18;;;21.70;98.90;;;;;;4999209;28;20485;-92
2023/07/10 02:21:49;;;;;;;6.50;4.15;;;21.70;98.80;;;;;;4999855;28;20465;-93
2023/07/10 02:24:17;;;;;;;7.15;3.90;;;21.70;98.70;;;;;;5000100;28;20036;-92
2023/07/10 02:26:43;;;;;;;8.73;4.07;;;21.70;98.70;;;;;;4996737;28;20050;-89
2023/07/10 02:29:20;;;;;;;5.95;3.28;;;21.70;98.70;;;;;;5015168;28;20362;-93
2023/07/10 02:31:52;;;;;;;6.50;3.53;;;21.60;98.70;;;;;;4999831;28;20029;-94
2023/07/10 02:34:18;;;;;;;6.53;3.60;;;21.60;98.80;;;;;;4992482;28;20066;-94
2023/07/10 02:36:44;;;;;;;6.03;3.83;;;21.70;98.80;;;;;;5001055;28;20018;-94
2023/07/10 02:39:10;;;;;;;6.50;4.00;;;21.70;98.80;;;;;;5000473;28;20020;-93
2023/07/10 02:41:38;;;;;;;6.32;3.67;;;21.70;98.80;;;;;;5017902;28;20033;-93
2023/07/10 02:44:03;;;;;;;7.85;4.10;;;21.70;98.80;;;;;;5000278;28;20029;-91
2023/07/10 02:46:29;;;;;;;5.72;3.63;;;21.60;98.80;;;;;;5000804;28;20030;-96
2023/07/10 02:48:55;;;;;;;6.40;3.63;;;21.60;98.80;;;;;;4991203;28;20033;-94
2023/07/10 02:51:28;;;;;;;8.00;4.07;;;21.60;98.80;;;;;;5023491;28;20428;-93
2023/07/10 02:53:54;;;;;;;7.18;3.55;;;21.60;98.80;;;;;;5039386;28;20347;-93
2023/07/10 02:56:21;;;;;;;5.13;3.55;;;21.60;98.80;;;;;;5020541;28;20006;-94
2023/07/10 02:58:53;;;;;;;5.18;3.42;;;21.60;98.70;;;;;;5020982;28;20037;-93
2023/07/10 03:01:22;;;;;;;8.40;3.33;;;21.60;98.70;;;;;;5018898;28;20022;-93
2023/07/10 03:03:48;;;;;;;5.07;3.60;;;21.60;98.70;;;;;;5031939;28;20036;-94
2023/07/10 03:06:14;;;;;;;6.55;2.97;;;21.60;98.70;;;;;;5015409;28;20037;-95
2023/07/10 03:08:40;;;;;;;6.85;3.83;;;21.60;98.70;;;;;;5009175;28;20030;-94
2023/07/10 03:11:15;;;;;;;5.13;3.03;;;21.60;98.60;;;;;;5019079;28;20380;-92
2023/07/10 03:13:41;;;;;;;5.40;3.20;;;21.50;98.60;;;;;;5017964;28;20030;-93
2023/07/10 03:16:10;;;;;;;4.18;2.85;;;21.50;98.50;;;;;;5000153;28;20109;-91
2023/07/10 03:18:36;;;;;;;5.25;3.03;;;21.50;98.50;;;;;;4999767;28;20049;-93
2023/07/10 03:21:02;;;;;;;7.43;2.90;;;21.40;98.40;;;;;;4999640;28;20046;-94
2023/07/10 03:23:28;;;;;;;5.07;2.80;;;21.40;98.50;;;;;;4999331;28;20080;-94
2023/07/10 03:25:54;;;;;;;4.68;3.20;;;21.40;98.50;;;;;;4999638;28;20018;-92
2023/07/10 03:28:23;;;;;;;5.22;2.90;;;21.40;98.50;;;;;;4999825;28;20029;-93
2023/07/10 03:30:49;;;;;;;5.50;3.33;;;21.40;98.40;;;;;;5017241;28;20022;-94
2023/07/10 03:33:19;;;;;;;5.68;3.20;;;21.40;98.40;;;;;;5000432;28;20527;-94
2023/07/10 03:35:48;;;;;;;8.98;4.15;;;21.40;98.40;;;;;;4999973;28;20049;-94
2023/07/10 03:38:15;;;;;;;6.68;3.38;;;21.40;98.50;;;;;;5016774;28;20064;-94
2023/07/10 03:40:55;;;;;;;6.10;3.90;;;21.40;98.40;;;;;;4983537;28;20030;-94
2023/07/10 03:43:21;;;;;;;5.07;3.75;;;21.40;98.50;;;;;;5000057;28;20034;-94
2023/07/10 03:45:51;;;;;;;6.13;3.85;;;21.30;98.50;;;;;;4999287;28;20466;-92
2023/07/10 03:48:26;;;;;;;5.55;3.72;;;21.40;98.50;;;;;;5016693;28;20029;-94
2023/07/10 03:50:52;;;;;;;5.22;3.92;;;21.40;98.50;;;;;;4999428;28;20018;-94
2023/07/10 03:53:17;;;;;;;8.00;4.57;;;21.40;98.50;;;;;;4999031;28;20037;-93
2023/07/10 03:55:53;;;;;;;7.85;4.20;;;21.40;98.50;;;;;;4982851;28;20030;-93
2023/07/10 03:58:22;;;;;;;7.72;5.30;;;21.40;98.50;;;;;;4998965;28;20457;-93
2023/07/10 04:00:49;;;;;;;6.47;4.32;;;21.40;98.40;;;;;;5016091;28;20037;-94
2023/07/10 04:03:15;;;;;;;8.80;4.97;;;21.30;98.30;;;;;;4983011;28;20088;-94
2023/07/10 04:05:49;;;;;;;8.48;4.80;;;21.40;98.20;;;;;;5016226;28;20029;-93
2023/07/10 04:08:18;;;;;;;6.03;5.25;;;21.30;98.20;;;;;;4999731;28;20037;-93
2023/07/10 04:10:51;;;;;;;7.03;5.00;;;21.30;98.10;;;;;;4999056;28;20053;-93
2023/07/10 04:13:25;;;;;;;9.27;5.13;;;21.30;98.10;;;;;;4998653;28;20080;-94
2023/07/10 04:16:02;;;;;;;7.28;4.88;;;21.30;98.10;;;;;;4999052;28;20068;-92
2023/07/10 04:18:38;;;;;;;7.38;4.68;;;21.30;98.00;;;;;;4998680;28;20021;-93
2023/07/10 04:21:09;;;;;;;6.70;4.75;;;21.20;98.00;;;;;;5016967;28;20065;-94
2023/07/10 04:23:35;;;;;;;5.80;4.72;;;21.20;98.00;;;;;;4998815;28;20116;-95
2023/07/10 04:26:03;;;;;;;6.90;4.75;;;21.20;97.90;;;;;;4998997;28;20080;-93
2023/07/10 04:28:28;;;;;;;7.30;4.57;;;21.20;97.90;;;;;;4983195;28;20033;-94
2023/07/10 04:30:54;;;;;;;7.00;4.22;;;21.20;98.10;;;;;;4998075;28;20033;-94
2023/07/10 04:33:23;;;;;;;7.03;4.32;;;21.20;97.80;;;;;;4998961;28;20037;-94
2023/07/10 04:35:54;;;;;;;5.40;4.28;;;21.20;97.80;;;;;;4982842;28;20037;-94
2023/07/10 04:38:25;;;;;;;4.68;3.35;;;21.20;97.70;;;;;;4998091;28;20052;-94
2023/07/10 04:40:58;;;;;;;5.32;3.30;;;21.10;97.60;;;;;;4997776;28;20088;-92
2023/07/10 04:43:26;;;;;;;5.45;3.13;;;21.10;97.50;;;;;;4992693;28;20030;-92
2023/07/10 04:45:56;;;;;;;5.68;2.72;;;21.20;97.50;;;;;;4998224;28;20014;-93
2023/07/10 04:48:25;;;;;;;5.43;3.35;;;21.10;97.40;;;;;;4997650;28;20459;-93
2023/07/10 04:51:03;;;;;;;4.70;2.75;;;21.10;97.40;;;;;;4997740;28;20057;-93
2023/07/10 04:53:32;;;;;;;6.25;2.80;;;21.10;97.40;;;;;;5014980;28;20030;-93
2023/07/10 04:56:04;;;;;;;5.72;2.80;;;21.10;97.30;;;;;;5013635;28;20537;-84
2023/07/10 04:58:46;;;;;;;4.57;2.67;;;21.10;97.20;;;;;;5011105;28;20049;-85
2023/07/10 05:01:11;;;;;;;4.20;2.88;;;21.10;97.10;;;;;;5019400;28;20030;-85
2023/07/10 05:03:37;;;;;;;6.72;3.15;;;21.10;97.10;;;;;;5006427;28;20157;-85
2023/07/10 05:06:03;;;;;;;5.72;2.80;;;21.10;97.10;;;;;;4972951;28;20500;-85
2023/07/10 05:08:29;;;;;;;4.47;2.60;;;21.10;97.00;;;;;;5014979;28;20034;-84
2023/07/10 05:10:56;;;;;;;4.15;2.83;;;21.10;97.00;;;;;;4997898;28;20068;-84
2023/07/10 05:13:24;;;;;;;4.03;2.60;;;21.10;97.10;;;;;;4997558;28;20423;-84
2023/07/10 05:15:51;;;;;;;4.80;2.72;;;21.10;97.10;;;;;;5014286;28;20021;-82
2023/07/10 05:18:17;;;;;;;7.53;3.05;;;21.10;97.10;;;;;;4996810;28;20033;-83
2023/07/10 05:20:47;;;;;;;7.82;3.08;;;21.10;97.00;;;;;;5014707;28;20054;-83
2023/07/10 05:23:14;;;;;;;6.32;2.97;;;21.00;97.00;;;;;;4996817;28;20492;-85
2023/07/10 05:25:40;;;;;;;5.50;2.75;;;21.00;97.00;;;;;;4980675;28;20034;-85
2023/07/10 05:28:06;;;;;;;5.38;2.78;;;21.00;97.00;;;;;;4963927;28;20022;-84
2023/07/10 05:30:34;;;;;;;4.68;3.00;;;21.00;96.90;;;;;;4996104;28;20034;-85
2023/07/10 05:32:59;;;;;;;4.20;2.63;;;21.00;96.90;;;;;;4980482;28;20366;-84
2023/07/10 05:35:25;;;;;;;5.97;2.83;;;21.00;96.90;;;;;;4997001;28;20014;-85
2023/07/10 05:37:51;;;;;;;4.38;2.40;;;21.00;96.90;;;;;;4980313;28;20029;-85
2023/07/10 05:40:16;;;;;;;5.57;2.83;;;21.00;96.90;;;;;;4964186;28;20081;-85
2023/07/10 05:42:42;;;;;;;4.63;3.00;;;21.00;96.90;;;;;;4961671;28;20026;-86
2023/07/10 05:45:08;;;;;;;4.18;2.70;;;21.10;96.90;;;;;;4983106;28;20436;-85
2023/07/10 05:47:34;;;;;;;7.30;3.60;;;21.10;96.90;;;;;;5000024;28;20550;-85
2023/07/10 05:50:00;;;;;;;4.78;3.03;;;21.10;96.90;;;;;;5000469;28;20064;-85
2023/07/10 05:52:28;;;;;;;5.72;3.05;;;21.10;96.90;;;;;;5017398;28;20033;-84
2023/07/10 05:54:54;;;;;;;7.28;3.55;;;21.10;96.90;;;;;;4984607;28;20476;-89
2023/07/10 05:57:23;;;;;;;6.78;3.05;;;21.10;97.00;;;;;;4967625;28;20033;-84
2023/07/10 05:59:48;;;;;;;4.25;2.90;;;21.10;97.00;;;;;;4983619;28;20022;-85
2023/07/10 06:02:28;;;;;;;;;;;;;;;;;;;;;
2023/07/10 06:04:54;;;;;;;4.65;2.85;;;21.10;97.00;;;;;;4993105;28;20034;-92
2023/07/10 06:07:19;;;;;;;6.07;3.30;;;21.10;97.00;;;;;;5015909;28;20069;-93
2023/07/10 06:09:45;;;;;;;4.07;2.60;;;21.10;97.10;;;;;;5018475;28;20022;-92
2023/07/10 06:12:11;;;;;;;4.68;3.05;;;21.10;97.00;;;;;;5001961;28;20018;-93
2023/07/10 06:14:37;;;;;;;4.55;2.90;;;21.10;97.00;;;;;;5001883;28;20034;-92
2023/07/10 06:17:03;;;;;;;6.75;2.70;;;21.10;97.00;;;;;;4985371;28;20033;-93
2023/07/10 06:19:29;;;;;;;5.50;2.80;;;21.20;97.00;;;;;;4980880;28;20058;-92
2023/07/10 06:22:08;;;;;;;4.82;2.72;;;21.20;97.00;;;;;;5016724;28;20038;-92
2023/07/10 06:24:34;;;;;;;5.57;2.72;;;21.20;97.00;;;;;;5017486;28;20045;-92
2023/07/10 06:27:00;;;;;;;2.88;1.83;;;21.20;97.00;;;;;;5000844;28;20413;-92
2023/07/10 06:29:29;;;;;;;5.45;2.38;;;21.30;97.00;;;;;;4993346;28;20054;-91
2023/07/10 06:31:54;;;;;;;4.30;2.13;;;21.30;96.60;;;;;;5017532;28;20026;-91
2023/07/10 06:34:25;;;;;;;3.72;1.83;;;21.20;96.50;;;;;;5001087;28;20034;-92
2023/07/10 06:36:56;;;;;;;5.32;2.00;;;21.30;96.60;;;;;;5016897;28;20014;-92
2023/07/10 06:39:21;;;;;;;4.05;1.75;;;21.20;96.50;;;;;;5000561;28;20086;-93
2023/07/10 06:41:49;;;;;;;5.53;1.92;;;21.30;96.50;;;;;;5017119;28;20420;-91
2023/07/10 06:44:15;;;;;;;3.92;1.90;;;21.40;96.50;;;;;;5000481;28;20037;-91
2023/07/10 06:46:41;;;;;;;4.53;1.75;;;21.40;96.50;;;;;;5000856;28;20022;-91
2023/07/10 06:49:07;;;;;;;5.38;2.10;;;21.50;96.50;;;;;;4985469;28;20034;-92
2023/07/10 06:51:35;;;;;;;5.50;1.85;;;21.50;96.40;;;;;;5003808;28;20108;-92
2023/07/10 06:54:03;;;;;;;4.10;1.75;;;21.50;96.30;;;;;;5001745;28;20037;-92
2023/07/10 06:56:32;;;;;;;4.60;1.92;;;21.50;96.10;;;;;;4997392;28;20014;-92
2023/07/10 06:58:58;;;;;;;3.03;1.45;;;21.60;96.00;;;;;;5022509;28;20010;-92
2023/07/10 07:01:27;;;;;;;4.45;1.65;;;21.60;95.90;;;;;;5038324;28;20057;-92
2023/07/10 07:04:02;;;;;;;4.18;1.75;;;21.60;96.00;;;;;;4989642;28;20042;-92
2023/07/10 07:06:28;;;;;;;5.05;1.75;;;21.70;96.00;;;;;;5021395;28;20076;-91
2023/07/10 07:08:58;;;;;;;6.35;1.80;;;21.80;95.90;;;;;;5001228;28;20458;-91
2023/07/10 07:11:24;;;;;;;5.82;2.10;;;21.80;95.70;;;;;;4999785;28;20029;-92
2023/07/10 07:13:50;;;;;;;6.18;2.03;;;21.90;95.70;;;;;;4999980;28;20030;-93
2023/07/10 07:16:16;;;;;;;3.55;1.60;;;21.90;95.50;;;;;;4999997;28;20040;-94
2023/07/10 07:18:42;;;;;;;3.30;1.30;;;22.00;95.30;;;;;;4999914;28;20026;-93
2023/07/10 07:21:13;;;;;;;4.75;1.85;;;22.00;95.20;;;;;;4957188;29;20059;-92
2023/07/10 07:23:40;;;;;;;4.22;1.35;;;22.10;95.20;;;;;;4957758;29;20045;-92
2023/07/10 07:26:13;;;;;;;4.05;1.70;;;22.10;95.20;;;;;;4951036;28;20027;-92
2023/07/10 07:28:39;;;;;;;5.28;1.50;;;22.20;95.20;;;;;;5004918;28;20072;-93
2023/07/10 07:31:05;;;;;;;4.63;1.35;;;22.20;95.00;;;;;;4976899;28;20027;-93
2023/07/10 07:33:31;;;;;;;4.43;1.20;;;22.30;94.70;;;;;;4968599;28;20034;-91
2023/07/10 07:36:05;;;;;;;4.85;1.50;;;22.30;94.50;;;;;;5011947;28;20033;-91
2023/07/10 07:38:31;;;;;;;3.20;1.48;;;22.40;94.50;;;;;;4997461;28;20023;-91
2023/07/10 07:40:59;;;;;;;5.63;2.00;;;22.40;94.40;;;;;;4997896;28;20086;-92
2023/07/10 07:43:28;;;;;;;3.92;1.67;;;22.50;94.40;;;;;;4997629;28;20055;-93
2023/07/10 07:45:58;;;;;;;3.10;1.55;;;22.50;94.40;;;;;;4964861;28;20031;-93
2023/07/10 07:48:25;;;;;;;4.40;1.80;;;22.60;94.40;;;;;;4978508;28;20121;-93
2023/07/10 07:51:03;;;;;;;3.42;2.10;;;22.60;94.40;;;;;;4976659;28;20105;-94
2023/07/10 07:53:34;;;;;;;4.75;1.70;;;22.70;94.20;;;;;;4976628;28;20470;-92
2023/07/10 07:56:03;;;;;;;4.57;1.90;;;22.70;94.10;;;;;;4976522;28;20038;-92
2023/07/10 07:58:28;;;;;;;3.83;1.40;;;22.70;94.00;;;;;;4976618;28;20454;-92
2023/07/10 08:00:54;;;;;;;4.00;1.50;;;22.80;93.90;;;;;;4944719;28;20029;-93
2023/07/10 08:03:38;;;;;;;5.15;1.73;;;22.90;94.00;;;;;;4976803;28;20034;-92
2023/07/10 08:06:06;;;;;;;6.28;1.60;;;22.90;93.90;;;;;;4977987;28;20027;-92
2023/07/10 08:08:34;;;;;;;4.95;1.30;;;22.90;93.80;;;;;;4947618;28;20065;-92
2023/07/10 08:11:02;;;;;;;5.30;1.88;;;22.90;93.80;;;;;;4978508;28;20114;-92
2023/07/10 08:13:33;;;;;;;5.72;1.85;;;23.00;93.70;;;;;;4995183;28;20034;-92
2023/07/10 08:16:07;;;;;;;5.35;1.60;;;23.00;93.60;;;;;;4979016;28;20018;-91
2023/07/10 08:18:35;;;;;;;5.88;1.92;;;23.10;93.70;;;;;;4980150;28;20027;-93
2023/07/10 08:21:08;;;;;;;5.60;1.50;;;23.10;93.60;;;;;;4972682;28;20509;-90
2023/07/10 08:23:42;;;;;;;4.60;1.58;;;23.20;93.50;;;;;;4982972;28;20042;-92
2023/07/10 08:26:08;;;;;;;4.65;1.73;;;23.20;93.50;;;;;;4995506;28;20015;-91
2023/07/10 08:28:41;;;;;;;4.68;1.77;;;23.20;93.40;;;;;;5000949;28;20018;-92
2023/07/10 08:31:11;;;;;;;3.75;1.65;;;23.30;93.30;;;;;;5017107;28;20035;-92
2023/07/10 08:33:40;;;;;;;2.38;1.30;;;23.30;93.20;;;;;;4983121;28;20090;-93
2023/07/10 08:36:11;;;;;;;4.32;1.60;;;23.30;93.20;;;;;;4981968;28;20046;-92
2023/07/10 08:38:54;;;;;;;3.58;1.60;;;23.40;93.20;;;;;;5012917;28;20053;-92
2023/07/10 08:41:22;;;;;;;4.25;1.60;;;23.40;93.20;;;;;;5033551;28;20053;-93
2023/07/10 08:43:48;;;;;;;5.43;1.77;;;23.50;93.10;;;;;;5031766;28;20038;-91
2023/07/10 08:46:29;;;;;;;4.40;1.52;;;23.50;93.00;;;;;;5016875;28;20121;-92
2023/07/10 08:49:03;;;;;;;4.68;1.85;;;23.60;93.00;;;;;;5032777;28;20045;-92
2023/07/10 08:52:28;;;;;;;3.13;1.33;;;23.60;93.00;;;;;;5016911;28;20025;-93
2023/07/10 08:54:54;;;;;;;4.43;1.45;;;23.70;93.00;;;;;;4938295;29;20019;-92
2023/07/10 08:57:33;;;;;;;3.67;1.73;;;23.80;92.90;;;;;;4922425;29;20036;-92
2023/07/10 09:00:10;;;;;;;6.05;1.60;;;23.80;92.90;;;;;;4941746;29;20039;-90
2023/07/10 09:03:02;;;;;;;5.20;1.60;;;23.90;92.90;;;;;;4941560;29;20023;-91
2023/07/10 09:05:39;;;;;;;5.07;1.63;;;24.00;92.80;;;;;;4951274;28;20034;-90
2023/07/10 09:08:19;;;;;;;6.25;2.05;;;24.00;92.70;;;;;;5015812;28;20108;-92
2023/07/10 09:10:52;;;;;;;3.88;1.60;;;24.10;92.50;;;;;;5014639;28;20057;-91
2023/07/10 09:13:46;;;;;;;6.07;1.92;;;24.10;92.30;;;;;;5015441;28;20106;-93
2023/07/10 09:16:19;;;;;;;6.30;2.03;;;24.20;92.20;;;;;;5030695;28;20026;-92
2023/07/10 09:18:54;;;;;;;6.43;2.10;;;24.20;92.30;;;;;;5001482;28;20057;-92
2023/07/10 09:21:25;;;;;;;5.50;1.50;;;24.20;92.20;;;;;;5017587;28;20110;-92
2023/07/10 09:23:55;;;;;;;7.25;2.13;;;24.20;92.20;;;;;;5017514;28;20034;-91
2023/07/10 09:26:55;;;;;;;6.13;1.70;;;24.30;92.20;;;;;;5017252;28;20042;-92
2023/07/10 09:29:29;;;;;;;3.70;1.63;;;24.30;92.20;;;;;;5016591;28;20073;-92
2023/07/10 09:32:21;;;;;;;4.65;1.65;;;24.50;92.20;;;;;;5016171;28;20017;-90
2023/07/10 09:35:00;;;;;;;5.07;1.90;;;24.40;91.90;;;;;;5016785;28;20037;-92
2023/07/10 09:37:36;;;;;;;4.30;1.75;;;24.50;91.90;;;;;;5015515;28;20045;-91
2023/07/10 09:40:36;;;;;;;4.55;1.42;;;24.50;91.80;;;;;;5014557;28;20074;-92
2023/07/10 09:43:05;;;;;;;3.65;1.50;;;24.60;91.80;;;;;;5012895;28;20102;-91
2023/07/10 09:45:38;;;;;;;4.47;1.55;;;24.70;91.60;;;;;;5012931;28;20038;-92
2023/07/10 09:48:18;;;;;;;3.55;1.38;;;24.70;91.30;;;;;;4994037;28;20469;-92
2023/07/10 09:50:49;;;;;;;4.75;1.63;;;24.70;91.10;;;;;;5007938;28;20073;-92
2023/07/10 09:53:28;;;;;;;5.35;1.95;;;24.70;90.90;;;;;;5010270;28;20041;-92
2023/07/10 09:55:54;;;;;;;3.67;1.60;;;24.80;90.90;;;;;;5027065;28;20023;-92
2023/07/10 09:58:22;;;;;;;3.88;1.48;;;24.80;90.90;;;;;;5022092;28;20474;-92
2023/07/10 10:00:51;;;;;;;4.05;1.50;;;24.80;90.70;;;;;;5005018;28;20031;-92
2023/07/10 10:03:29;;;;;;;4.60;1.58;;;24.90;90.70;;;;;;4999894;28;20026;-91
2023/07/10 10:05:57;;;;;;;2.53;1.30;;;24.90;90.70;;;;;;4999937;28;20117;-92
2023/07/10 10:08:35;;;;;;;4.55;1.73;;;25.00;90.80;;;;;;5001804;28;20027;-92
2023/07/10 10:11:05;;;;;;;5.97;1.52;;;25.00;90.70;;;;;;5000668;28;20069;-92
2023/07/10 10:13:34;;;;;;;;;;;25.10;90.60;;;;;;5000147;28;20034;-91
2023/07/10 10:16:38;;;;;;;3.70;1.50;;;25.00;90.60;;;;;;4999049;28;19965;-93
2023/07/10 10:19:25;;;;;;;4.32;1.30;;;25.00;90.40;;;;;;4957457;28;20494;-92
2023/07/10 10:22:07;;;;;;;4.00;1.70;;;25.00;90.30;;;;;;4995048;28;20050;-92
2023/07/10 10:24:32;;;;;;;5.63;1.80;;;25.00;90.20;;;;;;4979460;28;20134;-91
2023/07/10 10:27:09;;;;;;;6.38;1.67;;;25.00;90.00;;;;;;4978748;28;20058;-92
2023/07/10 10:29:44;;;;;;;5.35;1.75;;;25.00;90.00;;;;;;4986516;28;20023;-92
2023/07/10 10:32:15;;;;;;;3.97;1.30;;;25.00;90.00;;;;;;4999439;28;20122;-91
2023/07/10 10:35:23;;;;;;;5.82;1.80;;;25.10;89.80;;;;;;4995092;28;20039;-92
2023/07/10 10:38:20;;;;;;;;;;;;;;;;;;;;;
2023/07/10 10:41:12;;;;;;;4.55;1.52;;;25.10;89.90;;;;;;4979982;28;20033;-93
2023/07/10 10:43:56;;;;;;;3.85;1.50;;;25.10;89.80;;;;;;4974543;28;20536;-93
2023/07/10 10:46:49;;;;;;;3.53;1.40;;;25.10;89.90;;;;;;4998226;28;20109;-93
2023/07/10 10:49:39;;;;;;;3.90;1.10;;;25.10;90.00;;;;;;5014505;28;20076;-93
2023/07/10 10:52:11;;;;;;;4.93;1.33;;;25.10;90.00;;;;;;4999521;28;20014;-92
2023/07/10 10:54:46;;;;;;;4.60;1.45;;;25.20;90.00;;;;;;5015019;28;20084;-94
2023/07/10 10:57:30;;;;;;;4.20;1.73;;;25.20;89.40;;;;;;5013806;28;20026;-93
2023/07/10 11:00:28;;;;;;;4.45;1.33;;;25.30;89.10;;;;;;5014751;28;20030;-92
2023/07/10 11:03:16;;;;;;;4.18;1.35;;;25.30;89.20;;;;;;5013479;28;20015;-92
2023/07/10 11:05:59;;;;;;;4.32;1.73;;;25.30;89.00;;;;;;5016862;28;20026;-92
2023/07/10 11:08:39;;;;;;;3.25;1.10;;;25.40;89.00;;;;;;5013211;28;20031;-93
2023/07/10 11:11:10;;;;;;;;;;;25.50;89.20;;;;;;5010854;28;20026;-92
2023/07/10 11:13:38;;;;;;;3.28;1.58;;;25.50;89.10;;;;;;5013654;28;19913;-93
2023/07/10 11:16:10;;;;;;;3.38;1.58;;;25.40;88.50;;;;;;5009170;28;20036;-93
2023/07/10 11:18:37;;;;;;;4.38;1.33;;;25.50;88.40;;;;;;4997675;28;20148;-92
2023/07/10 11:21:04;;;;;;;3.10;1.48;;;25.50;88.70;;;;;;4980502;28;20054;-90
2023/07/10 11:26:13;;;;;;;5.30;1.77;;;25.50;88.30;;;;;;5496978;23;20083;-93
2023/07/10 11:29:00;;;;;;;3.53;1.42;;;25.50;87.70;;;;;;5038122;28;20040;-91
2023/07/10 11:31:40;;;;;;;3.40;1.50;;;25.50;87.70;;;;;;5057727;28;20025;-91
2023/07/10 11:34:08;;;;;;;5.05;1.80;;;25.60;87.80;;;;;;5038358;28;20119;-92
2023/07/10 11:36:37;;;;;;;5.20;1.90;;;25.70;87.90;;;;;;5038771;28;20029;-92
2023/07/10 11:39:06;;;;;;;3.30;1.48;;;25.70;87.90;;;;;;5038820;28;20483;-91
2023/07/10 11:41:35;;;;;;;4.88;1.73;;;25.70;87.50;;;;;;5038280;28;20024;-93
2023/07/10 11:44:21;;;;;;;3.20;1.38;;;25.80;87.20;;;;;;5038363;28;20048;-93
2023/07/10 11:47:21;;;;;;;3.60;1.48;;;25.80;87.00;;;;;;5038632;28;20045;-92
2023/07/10 11:49:54;;;;;;;5.00;1.45;;;25.80;87.10;;;;;;5058896;28;20025;-93
2023/07/10 11:52:20;;;;;;;4.22;1.70;;;25.90;86.40;;;;;;5039024;28;20079;-92
2023/07/10 11:54:48;;;;;;;6.72;1.60;;;25.90;86.40;;;;;;5039208;28;20037;-93
2023/07/10 11:57:25;;;;;;;6.93;1.83;;;25.90;86.20;;;;;;5038440;28;20049;-93
2023/07/10 12:00:00;;;;;;;4.43;1.70;;;25.90;85.70;;;;;;5039853;28;20537;-93
2023/07/10 12:03:00;;;;;;;3.95;1.55;;;25.90;85.80;;;;;;5039006;28;20029;-93
2023/07/10 12:05:36;;;;;;;4.78;1.40;;;25.90;85.90;;;;;;5038970;28;20036;-93
2023/07/10 12:08:08;;;;;;;6.60;1.60;;;25.90;85.90;;;;;;5057732;28;20049;-93
2023/07/10 12:10:45;;;;;;;6.07;1.80;;;25.90;85.60;;;;;;5040502;28;20025;-92
2023/07/10 12:13:27;;;;;;;5.05;1.50;;;25.90;85.40;;;;;;5055959;28;20033;-92
2023/07/10 12:15:55;;;;;;;3.00;1.40;;;25.90;85.30;;;;;;5056431;28;20032;-93
2023/07/10 12:18:31;;;;;;;4.15;1.52;;;25.90;85.30;;;;;;5039080;28;20026;-94
2023/07/10 12:21:03;;;;;;;6.88;1.77;;;26.00;85.00;;;;;;5039159;28;20032;-92
2023/07/10 12:23:32;;;;;;;5.97;1.70;;;26.10;85.20;;;;;;5039029;28;20039;-93
2023/07/10 12:26:15;;;;;;;3.97;1.55;;;26.10;85.00;;;;;;5038479;28;20110;-93
2023/07/10 12:28:48;;;;;;;4.60;1.40;;;26.10;85.00;;;;;;5057025;28;20021;-93
2023/07/10 12:31:15;;;;;;;4.43;1.50;;;26.10;85.00;;;;;;5056069;28;20471;-94
2023/07/10 12:33:47;;;;;;;5.72;1.80;;;26.10;84.70;;;;;;5038801;28;20100;-93
2023/07/10 12:36:35;;;;;;;2.63;1.02;;;26.10;84.40;;;;;;5038356;28;20025;-93
2023/07/10 12:39:07;;;;;;;3.83;1.20;;;26.20;84.60;;;;;;5038495;28;20025;-94
2023/07/10 12:41:39;;;;;;;3.30;1.10;;;26.20;84.50;;;;;;5038465;28;20064;-93
2023/07/10 12:44:06;;;;;;;2.40;1.20;;;26.30;84.00;;;;;;5037941;28;20033;-94
2023/07/10 12:46:32;;;;;;;3.03;1.10;;;26.30;83.40;;;;;;5039017;28;20139;-93
2023/07/10 12:49:26;;;;;;;1.77;1.30;;;26.40;83.10;;;;;;5040085;28;20082;-93
2023/07/10 12:52:04;;;;;;;4.78;1.35;;;26.40;83.80;;;;;;5072797;28;20144;-93
2023/07/10 12:54:38;;;;;;;3.33;1.23;;;26.50;83.20;;;;;;5059575;28;20009;-94
2023/07/10 12:57:35;;;;;;;4.03;1.48;;;26.50;83.10;;;;;;5067716;28;20024;-93
2023/07/10 13:00:07;;;;;;;5.40;1.52;;;26.60;82.80;;;;;;5055299;28;20034;-94
2023/07/10 13:02:50;;;;;;;5.28;1.38;;;26.60;82.60;;;;;;5061436;28;20056;-94
2023/07/10 13:05:22;;;;;;;4.65;1.67;;;26.60;82.10;;;;;;5051483;28;20032;-93
2023/07/10 13:07:53;;;;;;;5.40;1.45;;;26.70;82.00;;;;;;5075521;28;20117;-92
2023/07/10 13:10:29;;;;;;;3.28;1.20;;;26.70;81.80;;;;;;5057173;28;20023;-93
2023/07/10 13:12:59;;;;;;;4.57;1.50;;;26.80;81.70;;;;;;5071362;28;20380;-93
2023/07/10 13:15:35;;;;;;;4.30;1.50;;;26.70;81.30;;;;;;5054942;28;20025;-93
2023/07/10 13:18:04;;;;;;;3.13;1.20;;;26.70;81.60;;;;;;5037038;28;20021;-92